Time;durP1;ratioP1;P1;durP2;ratioP2;P2;SDS_P1;SDS_P2;PMS_P1;PMS_P2;Temp;Humidity;BMP_temperature;BMP_pressure;BME280_temperature;BME280_humidity;BME280_pressure;Samples;Min_cycle;Max_cycle;Signal;HPM_P1;HPM_P2
2022/03/15 00:00:30;;;;;;;9.23;2.70;;;;;;;;;;5006948;28;20042;-79
2022/03/15 00:02:58;;;;;;;9.13;3.58;;;;;;;;;;5006988;28;20050;-79
2022/03/15 00:05:25;;;;;;;6.07;3.25;;;;;;;;;;5006583;28;20049;-79
2022/03/15 00:07:51;;;;;;;8.82;3.53;;;;;;;;;;5007130;28;20487;-79
2022/03/15 00:10:18;;;;;;;9.27;3.38;;;;;;;;;;5007361;28;20042;-79
2022/03/15 00:12:45;;;;;;;6.93;3.05;;;;;;;;;;5007807;28;20046;-79
2022/03/15 00:15:13;;;;;;;6.45;3.72;;;;;;;;;;5008488;28;20399;-79
2022/03/15 00:17:43;;;;;;;5.13;2.30;;;;;;;;;;5007359;28;20042;-79
2022/03/15 00:20:14;;;;;;;6.70;3.10;;;;;;;;;;5007135;28;20375;-79
2022/03/15 00:22:41;;;;;;;7.05;3.15;;;;;;;;;;5007744;28;20553;-79
2022/03/15 00:25:09;;;;;;;9.82;3.28;;;;;;;;;;5008340;28;20042;-79
2022/03/15 00:27:37;;;;;;;7.30;3.10;;;;;;;;;;5007839;28;20487;-79
2022/03/15 00:30:06;;;;;;;15.27;3.22;;;;;;;;;;5007692;28;20042;-79
2022/03/15 00:32:33;;;;;;;8.80;3.08;;;;;;;;;;5007306;28;20061;-79
2022/03/15 00:35:01;;;;;;;5.93;2.65;;;;;;;;;;5007677;28;20436;-79
2022/03/15 00:37:28;;;;;;;9.40;3.85;;;;;;;;;;5007716;28;20046;-79
2022/03/15 00:39:54;;;;;;;7.13;3.30;;;;;;;;;;5007530;28;20070;-79
2022/03/15 00:42:21;;;;;;;5.95;2.50;;;;;;;;;;5007613;28;20375;-79
2022/03/15 00:44:47;;;;;;;6.78;2.78;;;;;;;;;;5006585;28;20074;-79
2022/03/15 00:47:14;;;;;;;4.60;2.35;;;;;;;;;;5006485;28;20069;-79
2022/03/15 00:49:40;;;;;;;5.80;2.50;;;;;;;;;;5007695;28;20076;-79
2022/03/15 00:52:08;;;;;;;5.47;2.05;;;;;;;;;;5008373;28;20042;-79
2022/03/15 00:54:35;;;;;;;5.10;2.38;;;;;;;;;;5008251;28;20109;-79
2022/03/15 00:57:01;;;;;;;7.53;2.33;;;;;;;;;;5008639;28;20439;-79
2022/03/15 00:59:28;;;;;;;3.47;1.98;;;;;;;;;;4990671;28;20038;-79
2022/03/15 01:01:56;;;;;;;8.23;2.80;;;;;;;;;;5008093;28;20074;-79
2022/03/15 01:04:22;;;;;;;5.30;1.98;;;;;;;;;;5007797;28;20442;-79
2022/03/15 01:06:49;;;;;;;3.97;2.00;;;;;;;;;;5008688;28;20043;-79
2022/03/15 01:09:17;;;;;;;4.88;2.78;;;;;;;;;;5009278;28;20359;-79
2022/03/15 01:11:44;;;;;;;7.45;2.50;;;;;;;;;;5008614;28;20042;-79
2022/03/15 01:14:11;;;;;;;4.63;2.00;;;;;;;;;;5008685;28;20074;-79
2022/03/15 01:16:38;;;;;;;7.25;2.45;;;;;;;;;;5010253;28;20436;-79
2022/03/15 01:19:07;;;;;;;3.92;2.42;;;;;;;;;;4991476;28;20077;-79
2022/03/15 01:21:35;;;;;;;3.67;2.13;;;;;;;;;;5009761;28;20053;-79
2022/03/15 01:24:03;;;;;;;4.40;1.83;;;;;;;;;;5008666;28;20557;-79
2022/03/15 01:26:31;;;;;;;4.40;1.85;;;;;;;;;;5008028;28;20042;-79
2022/03/15 01:28:58;;;;;;;4.80;2.08;;;;;;;;;;5008716;28;20043;-79
2022/03/15 01:31:24;;;;;;;5.05;2.42;;;;;;;;;;5007551;28;20061;-79
2022/03/15 01:33:51;;;;;;;4.00;2.42;;;;;;;;;;5006370;28;20042;-79
2022/03/15 01:36:18;;;;;;;5.35;1.83;;;;;;;;;;5005463;28;20066;-79
2022/03/15 01:38:44;;;;;;;4.22;1.88;;;;;;;;;;5005740;28;20042;-79
2022/03/15 01:41:10;;;;;;;4.70;2.28;;;;;;;;;;5005312;28;20073;-79
2022/03/15 01:43:40;;;;;;;5.00;2.55;;;;;;;;;;5007488;28;20042;-80
2022/03/15 01:46:07;;;;;;;6.35;2.30;;;;;;;;;;5008589;28;20042;-80
2022/03/15 01:48:35;;;;;;;5.70;2.38;;;;;;;;;;5008553;28;20053;-79
2022/03/15 01:51:02;;;;;;;3.50;1.80;;;;;;;;;;4991061;28;20050;-79
2022/03/15 01:53:29;;;;;;;11.90;2.05;;;;;;;;;;5008404;28;20047;-80
2022/03/15 01:55:56;;;;;;;7.03;2.55;;;;;;;;;;5007548;28;20043;-80
2022/03/15 01:58:23;;;;;;;2.72;1.75;;;;;;;;;;5007673;28;20363;-80
2022/03/15 02:00:52;;;;;;;6.22;2.08;;;;;;;;;;5008459;28;20078;-80
2022/03/15 02:03:19;;;;;;;5.55;2.20;;;;;;;;;;4991016;28;20046;-79
2022/03/15 02:05:46;;;;;;;4.97;1.90;;;;;;;;;;4990906;28;20078;-79
2022/03/15 02:08:14;;;;;;;4.65;2.00;;;;;;;;;;4974036;28;20069;-79
2022/03/15 02:10:41;;;;;;;3.65;1.85;;;;;;;;;;5007417;28;20068;-80
2022/03/15 02:13:08;;;;;;;5.68;1.80;;;;;;;;;;5009074;28;20046;-79
2022/03/15 02:15:34;;;;;;;4.93;1.83;;;;;;;;;;5010853;28;20042;-80
2022/03/15 02:18:02;;;;;;;3.72;1.90;;;;;;;;;;5009946;28;20082;-79
2022/03/15 02:20:34;;;;;;;3.53;2.00;;;;;;;;;;5009384;28;20077;-79
2022/03/15 02:23:01;;;;;;;6.22;2.85;;;;;;;;;;5009067;28;20116;-79
2022/03/15 02:25:28;;;;;;;4.22;1.98;;;;;;;;;;5008615;28;20065;-79
2022/03/15 02:27:54;;;;;;;5.25;2.35;;;;;;;;;;5007870;28;20093;-79
2022/03/15 02:30:22;;;;;;;4.18;1.80;;;;;;;;;;5005364;28;20485;-79
2022/03/15 02:32:48;;;;;;;4.40;2.30;;;;;;;;;;5004205;28;20074;-79
2022/03/15 02:35:15;;;;;;;4.30;2.03;;;;;;;;;;5002921;28;20043;-79
2022/03/15 02:37:43;;;;;;;4.00;2.00;;;;;;;;;;4985287;28;20042;-79
2022/03/15 02:40:11;;;;;;;5.50;2.05;;;;;;;;;;4999660;28;20066;-79
2022/03/15 02:42:38;;;;;;;6.03;2.50;;;;;;;;;;5000043;28;20165;-79
2022/03/15 02:45:06;;;;;;;3.45;2.20;;;;;;;;;;4999230;28;20073;-79
2022/03/15 02:47:34;;;;;;;4.25;2.10;;;;;;;;;;4999682;28;20042;-79
2022/03/15 02:50:01;;;;;;;9.48;2.83;;;;;;;;;;4999166;28;20042;-79
2022/03/15 02:52:29;;;;;;;5.60;2.33;;;;;;;;;;4999960;28;20454;-79
2022/03/15 02:54:58;;;;;;;5.82;2.28;;;;;;;;;;4982305;28;20052;-79
2022/03/15 02:57:24;;;;;;;4.60;2.17;;;;;;;;;;4999752;28;20110;-79
2022/03/15 02:59:51;;;;;;;4.47;2.20;;;;;;;;;;4998534;28;20042;-79
2022/03/15 03:02:18;;;;;;;4.30;2.30;;;;;;;;;;4998734;28;20046;-79
2022/03/15 03:04:44;;;;;;;4.05;2.50;;;;;;;;;;4998910;28;20081;-79
2022/03/15 03:07:12;;;;;;;3.65;2.33;;;;;;;;;;5000082;28;20133;-79
2022/03/15 03:09:38;;;;;;;7.35;2.38;;;;;;;;;;5000389;28;20042;-79
2022/03/15 03:12:08;;;;;;;4.20;1.90;;;;;;;;;;4998338;28;20073;-79
2022/03/15 03:14:35;;;;;;;3.30;2.20;;;;;;;;;;4998439;28;20124;-79
2022/03/15 03:17:04;;;;;;;4.05;2.40;;;;;;;;;;4981134;28;20038;-78
2022/03/15 03:19:31;;;;;;;4.05;2.10;;;;;;;;;;4998650;28;20077;-79
2022/03/15 03:21:59;;;;;;;5.88;2.08;;;;;;;;;;4998956;28;20046;-78
2022/03/15 03:24:25;;;;;;;4.25;2.35;;;;;;;;;;4998988;28;20093;-79
2022/03/15 03:26:52;;;;;;;5.47;2.67;;;;;;;;;;4998901;28;20093;-79
2022/03/15 03:29:21;;;;;;;4.30;1.85;;;;;;;;;;4998518;28;20047;-79
2022/03/15 03:31:49;;;;;;;5.13;2.53;;;;;;;;;;4997525;28;20137;-79
2022/03/15 03:34:16;;;;;;;4.18;2.17;;;;;;;;;;4998434;28;20435;-79
2022/03/15 03:36:43;;;;;;;4.20;2.30;;;;;;;;;;4998563;28;20105;-79
2022/03/15 03:39:09;;;;;;;5.05;2.15;;;;;;;;;;4980738;28;20471;-78
2022/03/15 03:41:37;;;;;;;4.60;2.53;;;;;;;;;;4997849;28;20549;-79
2022/03/15 03:44:05;;;;;;;5.85;2.50;;;;;;;;;;4998605;28;20077;-79
2022/03/15 03:46:33;;;;;;;5.47;3.20;;;;;;;;;;4998689;28;20104;-79
2022/03/15 03:48:59;;;;;;;6.32;2.40;;;;;;;;;;4979809;28;20084;-79
2022/03/15 03:51:26;;;;;;;6.68;2.45;;;;;;;;;;4997660;28;20038;-79
2022/03/15 03:53:52;;;;;;;4.35;2.17;;;;;;;;;;4997811;28;20070;-79
2022/03/15 03:56:19;;;;;;;3.22;2.40;;;;;;;;;;4997978;28;20050;-78
2022/03/15 03:58:45;;;;;;;5.40;2.22;;;;;;;;;;4998526;28;20046;-78
2022/03/15 04:01:12;;;;;;;7.18;2.65;;;;;;;;;;4998035;28;20513;-78
2022/03/15 04:03:40;;;;;;;6.15;2.92;;;;;;;;;;4981563;28;20046;-78
2022/03/15 04:06:08;;;;;;;5.65;2.58;;;;;;;;;;4999373;28;20073;-78
2022/03/15 04:08:34;;;;;;;6.97;2.55;;;;;;;;;;4998678;28;20052;-79
2022/03/15 04:11:01;;;;;;;5.80;3.00;;;;;;;;;;4999694;28;20046;-79
2022/03/15 04:13:29;;;;;;;11.43;2.95;;;;;;;;;;5001382;28;20415;-79
2022/03/15 04:15:57;;;;;;;4.75;2.58;;;;;;;;;;4985412;28;20105;-79
2022/03/15 04:18:24;;;;;;;5.88;2.53;;;;;;;;;;5003289;28;20042;-79
2022/03/15 04:20:52;;;;;;;4.65;2.35;;;;;;;;;;5001808;28;20104;-78
2022/03/15 04:23:19;;;;;;;8.98;2.78;;;;;;;;;;5005076;28;20166;-78
2022/03/15 04:25:45;;;;;;;7.00;3.38;;;;;;;;;;5004850;28;20042;-79
2022/03/15 04:28:12;;;;;;;7.13;3.13;;;;;;;;;;4984668;28;20053;-79
2022/03/15 04:30:39;;;;;;;8.32;3.10;;;;;;;;;;5002679;28;20058;-79
2022/03/15 04:33:06;;;;;;;6.68;2.97;;;;;;;;;;5001780;28;20090;-79
2022/03/15 04:35:34;;;;;;;5.95;2.45;;;;;;;;;;5004586;28;20105;-80
2022/03/15 04:38:03;;;;;;;4.70;2.38;;;;;;;;;;5002929;28;20577;-79
2022/03/15 04:40:32;;;;;;;7.10;2.53;;;;;;;;;;5002434;28;20074;-79
2022/03/15 04:43:01;;;;;;;5.22;3.00;;;;;;;;;;5000750;28;20394;-79
2022/03/15 04:45:28;;;;;;;5.97;2.40;;;;;;;;;;4986754;28;20081;-79
2022/03/15 04:47:54;;;;;;;7.38;3.05;;;;;;;;;;4986693;28;20089;-78
2022/03/15 04:50:21;;;;;;;5.65;2.70;;;;;;;;;;5003313;28;20046;-79
2022/03/15 04:52:48;;;;;;;6.80;2.80;;;;;;;;;;5002743;28;20074;-79
2022/03/15 04:55:16;;;;;;;6.32;2.80;;;;;;;;;;5002893;28;20047;-79
2022/03/15 04:57:43;;;;;;;5.60;3.00;;;;;;;;;;5005081;28;20046;-78
2022/03/15 05:00:10;;;;;;;9.52;3.45;;;;;;;;;;5002762;28;20113;-79
2022/03/15 05:02:39;;;;;;;5.47;2.97;;;;;;;;;;5003423;28;20046;-79
2022/03/15 05:05:07;;;;;;;5.18;2.90;;;;;;;;;;5002720;28;20043;-79
2022/03/15 05:07:34;;;;;;;6.47;3.30;;;;;;;;;;5005057;28;20073;-79
2022/03/15 05:12:47;;;;;;;6.95;3.25;;;;;;;;;;5005063;28;20147;-79
2022/03/15 05:15:13;;;;;;;6.10;3.08;;;;;;;;;;5006352;28;20105;-79
2022/03/15 05:17:40;;;;;;;7.47;4.03;;;;;;;;;;4989177;28;20057;-79
2022/03/15 05:20:09;;;;;;;9.68;4.30;;;;;;;;;;5005490;28;20097;-79
2022/03/15 05:22:36;;;;;;;6.00;3.67;;;;;;;;;;5005757;28;20057;-79
2022/03/15 05:25:04;;;;;;;9.35;3.83;;;;;;;;;;4990620;28;20046;-79
2022/03/15 05:27:33;;;;;;;12.27;5.10;;;;;;;;;;5013825;28;20038;-80
2022/03/15 05:30:02;;;;;;;10.43;4.68;;;;;;;;;;5021832;28;20037;-79
2022/03/15 05:32:32;;;;;;;8.20;4.90;;;;;;;;;;4992743;28;20089;-79
2022/03/15 05:34:59;;;;;;;12.50;4.97;;;;;;;;;;4985184;28;20081;-79
2022/03/15 05:37:26;;;;;;;11.13;4.60;;;;;;;;;;5002085;28;20046;-79
2022/03/15 05:39:52;;;;;;;10.23;5.32;;;;;;;;;;5000839;28;20070;-79
2022/03/15 05:42:19;;;;;;;9.43;5.25;;;;;;;;;;5000863;28;20078;-79
2022/03/15 05:44:46;;;;;;;10.35;4.88;;;;;;;;;;5000619;28;20050;-79
2022/03/15 05:47:15;;;;;;;12.48;4.35;;;;;;;;;;5002017;28;20042;-79
2022/03/15 05:49:41;;;;;;;10.45;4.22;;;;;;;;;;5003292;28;20043;-79
2022/03/15 05:52:08;;;;;;;20.23;6.75;;;;;;;;;;5003640;28;20415;-79
2022/03/15 05:54:35;;;;;;;8.88;4.65;;;;;;;;;;4982727;28;20497;-79
2022/03/15 05:57:02;;;;;;;10.43;4.18;;;;;;;;;;5001715;28;20118;-78
2022/03/15 05:59:29;;;;;;;10.57;4.35;;;;;;;;;;4984143;28;20068;-78
2022/03/15 06:01:56;;;;;;;12.73;5.22;;;;;;;;;;4984203;28;20061;-78
2022/03/15 06:04:26;;;;;;;7.78;5.45;;;;;;;;;;5001803;28;20046;-78
2022/03/15 06:06:55;;;;;;;11.15;6.97;;;;;;;;;;5002047;28;20049;-79
2022/03/15 06:09:23;;;;;;;9.25;6.20;;;;;;;;;;5001414;28;20133;-79
2022/03/15 06:11:50;;;;;;;9.75;5.80;;;;;;;;;;5001472;28;20105;-79
2022/03/15 06:14:17;;;;;;;11.15;5.53;;;;;;;;;;5000001;28;20467;-78
2022/03/15 06:16:43;;;;;;;8.30;4.68;;;;;;;;;;4999430;28;20085;-78
2022/03/15 06:19:10;;;;;;;9.57;5.10;;;;;;;;;;4999793;28;20157;-78
2022/03/15 06:21:41;;;;;;;10.50;5.80;;;;;;;;;;4999355;28;20081;-78
2022/03/15 06:24:08;;;;;;;9.93;4.57;;;;;;;;;;4998747;28;20042;-78
2022/03/15 06:26:35;;;;;;;6.18;3.65;;;;;;;;;;4999457;28;20046;-78
2022/03/15 06:29:02;;;;;;;9.73;3.88;;;;;;;;;;4996632;28;20101;-78
2022/03/15 06:31:29;;;;;;;8.90;4.50;;;;;;;;;;4999771;28;20069;-78
2022/03/15 06:33:56;;;;;;;9.50;4.95;;;;;;;;;;5018405;28;20045;-77
2022/03/15 06:36:22;;;;;;;13.70;5.35;;;;;;;;;;5018232;28;20359;-78
2022/03/15 06:38:50;;;;;;;13.90;4.93;;;;;;;;;;5018692;28;20048;-78
2022/03/15 06:41:17;;;;;;;12.57;5.82;;;;;;;;;;5018252;28;20046;-77
2022/03/15 06:43:44;;;;;;;12.23;6.28;;;;;;;;;;5017810;28;20073;-77
2022/03/15 06:46:10;;;;;;;13.65;6.88;;;;;;;;;;5017619;28;20077;-78
2022/03/15 06:48:37;;;;;;;16.17;6.00;;;;;;;;;;5018323;28;20048;-78
2022/03/15 06:51:04;;;;;;;10.05;5.35;;;;;;;;;;5000649;28;20060;-78
2022/03/15 06:53:31;;;;;;;14.77;6.70;;;;;;;;;;5018618;28;20133;-78
2022/03/15 06:55:59;;;;;;;22.75;7.47;;;;;;;;;;5018385;28;20041;-78
2022/03/15 06:58:26;;;;;;;9.98;6.22;;;;;;;;;;5018885;28;20120;-78
2022/03/15 07:00:55;;;;;;;10.60;5.85;;;;;;;;;;5002046;28;20045;-78
2022/03/15 07:03:21;;;;;;;14.23;5.55;;;;;;;;;;5018681;28;20050;-78
2022/03/15 07:05:48;;;;;;;9.13;5.53;;;;;;;;;;5018612;28;20073;-78
2022/03/15 07:08:15;;;;;;;8.20;5.05;;;;;;;;;;5018604;28;20073;-78
2022/03/15 07:10:41;;;;;;;11.82;5.35;;;;;;;;;;5000016;28;20042;-78
2022/03/15 07:13:09;;;;;;;12.90;5.53;;;;;;;;;;5018666;28;20084;-77
2022/03/15 07:15:36;;;;;;;8.70;5.05;;;;;;;;;;5017733;28;20077;-77
2022/03/15 07:18:02;;;;;;;10.32;5.30;;;;;;;;;;5017443;28;20100;-77
2022/03/15 07:20:36;;;;;;;10.65;5.78;;;;;;;;;;5017138;28;20042;-77
2022/03/15 07:23:02;;;;;;;11.80;6.65;;;;;;;;;;5018853;28;20050;-78
2022/03/15 07:25:29;;;;;;;17.35;8.35;;;;;;;;;;5018507;28;20046;-78
2022/03/15 07:27:56;;;;;;;19.92;8.52;;;;;;;;;;5018720;28;20081;-78
2022/03/15 07:30:24;;;;;;;18.40;8.27;;;;;;;;;;5018302;28;20358;-78
2022/03/15 07:32:51;;;;;;;15.98;7.45;;;;;;;;;;5017069;28;20446;-78
2022/03/15 07:35:18;;;;;;;12.68;7.22;;;;;;;;;;5018432;28;20073;-78
2022/03/15 07:37:51;;;;;;;10.10;6.20;;;;;;;;;;5017877;28;20046;-78
2022/03/15 07:40:18;;;;;;;9.93;5.90;;;;;;;;;;5017957;28;20439;-78
2022/03/15 07:42:46;;;;;;;10.95;5.95;;;;;;;;;;5018901;28;20046;-78
2022/03/15 07:45:13;;;;;;;10.05;5.72;;;;;;;;;;5017834;28;20050;-78
2022/03/15 07:47:42;;;;;;;13.10;5.65;;;;;;;;;;5017804;28;20042;-78
2022/03/15 07:50:09;;;;;;;9.75;5.10;;;;;;;;;;5021706;28;20042;-78
2022/03/15 07:52:35;;;;;;;8.30;5.80;;;;;;;;;;5023107;28;20046;-78
2022/03/15 07:55:02;;;;;;;7.10;5.07;;;;;;;;;;5022814;28;20069;-78
2022/03/15 07:57:29;;;;;;;8.15;5.30;;;;;;;;;;5023069;28;20053;-78
2022/03/15 07:59:56;;;;;;;10.82;5.78;;;;;;;;;;5022179;28;20042;-78
2022/03/15 08:02:22;;;;;;;10.43;5.72;;;;;;;;;;5021626;28;20042;-78
2022/03/15 08:04:53;;;;;;;10.05;5.05;;;;;;;;;;5022389;28;20081;-79
2022/03/15 08:07:21;;;;;;;11.23;5.65;;;;;;;;;;5005482;28;20046;-78
2022/03/15 08:09:48;;;;;;;8.48;5.65;;;;;;;;;;5022622;28;20072;-78
2022/03/15 08:12:14;;;;;;;13.27;7.30;;;;;;;;;;5022194;28;20042;-79
2022/03/15 08:14:42;;;;;;;16.42;6.93;;;;;;;;;;5021322;28;20085;-80
2022/03/15 08:17:08;;;;;;;11.07;5.80;;;;;;;;;;4986950;28;20133;-80
2022/03/15 08:19:36;;;;;;;8.93;4.97;;;;;;;;;;5002591;28;20099;-80
2022/03/15 08:22:05;;;;;;;13.30;6.55;;;;;;;;;;5002427;28;20080;-77
2022/03/15 08:24:31;;;;;;;10.20;5.97;;;;;;;;;;5019541;28;20103;-77
2022/03/15 08:26:58;;;;;;;12.63;6.03;;;;;;;;;;5019368;28;20053;-77
2022/03/15 08:29:24;;;;;;;10.70;5.85;;;;;;;;;;5020945;28;20382;-77
2022/03/15 08:31:51;;;;;;;8.32;5.63;;;;;;;;;;5019730;28;20104;-77
2022/03/15 08:34:17;;;;;;;10.55;5.25;;;;;;;;;;5019153;28;20041;-77
2022/03/15 08:36:45;;;;;;;11.40;5.20;;;;;;;;;;5020221;28;20049;-77
2022/03/15 08:39:14;;;;;;;11.07;5.72;;;;;;;;;;5019859;28;20081;-77
2022/03/15 08:41:41;;;;;;;10.60;5.32;;;;;;;;;;5020380;28;20046;-77
2022/03/15 08:44:08;;;;;;;9.82;5.32;;;;;;;;;;5019217;28;20100;-78
2022/03/15 08:46:34;;;;;;;13.70;5.15;;;;;;;;;;5019308;28;20077;-78
2022/03/15 08:49:08;;;;;;;11.93;6.05;;;;;;;;;;5019422;28;20081;-78
2022/03/15 08:51:35;;;;;;;9.70;5.18;;;;;;;;;;5020940;28;20056;-78
2022/03/15 08:54:01;;;;;;;9.48;5.40;;;;;;;;;;5020361;28;20479;-78
2022/03/15 08:56:31;;;;;;;9.35;5.60;;;;;;;;;;5022291;28;20042;-80
2022/03/15 08:58:59;;;;;;;9.73;5.88;;;;;;;;;;5018666;28;20343;-80
2022/03/15 09:01:26;;;;;;;8.70;4.88;;;;;;;;;;5018009;28;20116;-80
2022/03/15 09:03:52;;;;;;;10.88;5.43;;;;;;;;;;5018448;28;20077;-80
2022/03/15 09:06:19;;;;;;;7.57;4.20;;;;;;;;;;5017860;28;20073;-79
2022/03/15 09:08:46;;;;;;;7.82;4.13;;;;;;;;;;5018636;28;20073;-79
2022/03/15 09:11:14;;;;;;;9.00;5.28;;;;;;;;;;5019047;28;20053;-80
2022/03/15 09:13:45;;;;;;;8.90;4.95;;;;;;;;;;5000086;28;20046;-80
2022/03/15 09:16:12;;;;;;;8.40;4.93;;;;;;;;;;5001835;28;20056;-80
2022/03/15 09:18:39;;;;;;;7.70;4.90;;;;;;;;;;5021540;28;20073;-80
2022/03/15 09:21:09;;;;;;;7.25;4.50;;;;;;;;;;5020966;28;20045;-80
2022/03/15 09:23:36;;;;;;;10.07;5.18;;;;;;;;;;5020846;28;20077;-80
2022/03/15 09:26:02;;;;;;;8.68;4.85;;;;;;;;;;4987698;28;20098;-80
2022/03/15 09:28:30;;;;;;;8.30;4.78;;;;;;;;;;5021617;28;20124;-80
2022/03/15 09:30:59;;;;;;;11.27;4.57;;;;;;;;;;5020685;28;20069;-80
2022/03/15 09:33:28;;;;;;;13.02;6.55;;;;;;;;;;4986140;28;20047;-80
2022/03/15 09:35:55;;;;;;;8.73;5.10;;;;;;;;;;5000918;28;20065;-79
2022/03/15 09:38:22;;;;;;;10.30;5.30;;;;;;;;;;5000968;28;20046;-80
2022/03/15 09:40:51;;;;;;;9.40;4.88;;;;;;;;;;4999724;28;20129;-80
2022/03/15 09:43:21;;;;;;;9.73;5.57;;;;;;;;;;5000326;28;20042;-80
2022/03/15 09:45:50;;;;;;;9.23;4.80;;;;;;;;;;5001089;28;20053;-80
2022/03/15 09:48:21;;;;;;;7.85;3.97;;;;;;;;;;4984656;28;20074;-80
2022/03/15 09:50:49;;;;;;;6.50;4.53;;;;;;;;;;4982333;28;20077;-80
2022/03/15 09:53:17;;;;;;;8.18;4.03;;;;;;;;;;4998284;28;20049;-80
2022/03/15 09:55:47;;;;;;;8.75;4.80;;;;;;;;;;4981102;28;20042;-80
2022/03/15 09:58:14;;;;;;;7.30;4.18;;;;;;;;;;4999146;28;20546;-80
2022/03/15 10:00:42;;;;;;;7.25;4.10;;;;;;;;;;4999258;28;20065;-80
2022/03/15 10:03:09;;;;;;;9.15;4.30;;;;;;;;;;4996956;28;20046;-80
2022/03/15 10:05:38;;;;;;;8.07;4.00;;;;;;;;;;4980739;28;20046;-80
2022/03/15 10:08:05;;;;;;;7.57;4.57;;;;;;;;;;4998218;28;20098;-80
2022/03/15 10:10:34;;;;;;;6.88;3.45;;;;;;;;;;4997641;28;20086;-80
2022/03/15 10:13:02;;;;;;;8.52;5.00;;;;;;;;;;4979452;28;20089;-80
2022/03/15 10:15:29;;;;;;;7.30;4.30;;;;;;;;;;4964010;28;20474;-80
2022/03/15 10:18:04;;;;;;;6.70;3.83;;;;;;;;;;4998224;28;20131;-80
2022/03/15 10:20:40;;;;;;;7.72;3.50;;;;;;;;;;4998096;28;20046;-80
2022/03/15 10:23:11;;;;;;;;;;;;;;;;;;4997880;28;20042;-80
2022/03/15 10:25:42;;;;;;;7.05;3.65;;;;;;;;;;4997514;28;19964;-80
2022/03/15 10:28:10;;;;;;;6.57;3.85;;;;;;;;;;5002238;28;20046;-80
2022/03/15 10:30:38;;;;;;;6.15;3.92;;;;;;;;;;5004978;28;20140;-80
2022/03/15 10:33:05;;;;;;;6.47;3.83;;;;;;;;;;4989881;28;20081;-80
2022/03/15 10:35:38;;;;;;;8.57;3.83;;;;;;;;;;4998043;28;20042;-82
2022/03/15 10:38:06;;;;;;;8.00;3.78;;;;;;;;;;4997839;28;20434;-80
2022/03/15 10:40:38;;;;;;;5.30;3.92;;;;;;;;;;4999008;28;20089;-80
2022/03/15 10:43:07;;;;;;;10.20;4.13;;;;;;;;;;4998633;28;20070;-80
2022/03/15 10:45:34;;;;;;;6.53;3.55;;;;;;;;;;4997908;28;20042;-80
2022/03/15 10:48:02;;;;;;;6.50;4.03;;;;;;;;;;4997805;28;20085;-80
2022/03/15 10:50:33;;;;;;;8.05;4.10;;;;;;;;;;5000701;28;20038;-80
2022/03/15 10:53:09;;;;;;;6.32;4.05;;;;;;;;;;4982014;28;20042;-80
2022/03/15 10:55:38;;;;;;;8.38;5.88;;;;;;;;;;4996009;28;20088;-80
2022/03/15 10:58:07;;;;;;;8.27;4.13;;;;;;;;;;4987474;28;20074;-80
2022/03/15 11:00:37;;;;;;;6.53;3.95;;;;;;;;;;4977531;28;20078;-80
2022/03/15 11:03:07;;;;;;;7.05;4.03;;;;;;;;;;4960733;28;20070;-80
2022/03/15 11:05:36;;;;;;;6.40;3.10;;;;;;;;;;4976163;28;20472;-80
2022/03/15 11:08:06;;;;;;;6.38;3.58;;;;;;;;;;4978258;28;20073;-80
2022/03/15 11:10:34;;;;;;;6.53;3.25;;;;;;;;;;4978205;28;20424;-80
2022/03/15 11:13:07;;;;;;;5.72;3.28;;;;;;;;;;4960822;28;20098;-80
2022/03/15 11:15:39;;;;;;;5.70;3.45;;;;;;;;;;4976781;28;20062;-80
2022/03/15 11:18:08;;;;;;;7.50;3.00;;;;;;;;;;4946367;28;20051;-80
2022/03/15 11:20:36;;;;;;;8.65;3.20;;;;;;;;;;4961134;28;20062;-80
2022/03/15 11:23:05;;;;;;;6.63;3.00;;;;;;;;;;4976533;28;20049;-80
2022/03/15 11:25:36;;;;;;;4.95;3.22;;;;;;;;;;4977724;28;20097;-80
2022/03/15 11:28:09;;;;;;;5.47;2.90;;;;;;;;;;4977097;28;20039;-80
2022/03/15 11:30:37;;;;;;;6.63;3.33;;;;;;;;;;4976386;28;20047;-80
2022/03/15 11:33:18;;;;;;;6.55;3.13;;;;;;;;;;4985255;28;20078;-80
2022/03/15 11:35:44;;;;;;;7.00;3.92;;;;;;;;;;4980921;28;20085;-80
2022/03/15 11:38:13;;;;;;;6.03;2.83;;;;;;;;;;4997948;28;20046;-80
2022/03/15 11:40:42;;;;;;;4.63;3.00;;;;;;;;;;4997262;28;20046;-80
2022/03/15 11:43:20;;;;;;;10.32;4.95;;;;;;;;;;4996063;28;20082;-80
2022/03/15 11:45:56;;;;;;;6.10;3.60;;;;;;;;;;4997572;28;20411;-80
2022/03/15 11:48:25;;;;;;;5.60;3.70;;;;;;;;;;4997102;28;20453;-80
2022/03/15 11:51:06;;;;;;;5.70;2.80;;;;;;;;;;4980243;28;20046;-80
2022/03/15 11:53:41;;;;;;;7.15;3.30;;;;;;;;;;4997974;28;20054;-80
2022/03/15 11:56:13;;;;;;;6.72;3.05;;;;;;;;;;4998142;28;20080;-80
2022/03/15 11:58:52;;;;;;;9.15;3.60;;;;;;;;;;4997955;28;20077;-80
2022/03/15 12:01:20;;;;;;;6.63;3.67;;;;;;;;;;4980548;28;20391;-80
2022/03/15 12:03:48;;;;;;;5.70;3.20;;;;;;;;;;4981925;28;20043;-80
2022/03/15 12:06:19;;;;;;;4.28;2.25;;;;;;;;;;4996959;28;20050;-80
2022/03/15 12:08:53;;;;;;;7.55;3.13;;;;;;;;;;4981497;28;20042;-79
2022/03/15 12:11:27;;;;;;;10.00;3.80;;;;;;;;;;4998784;28;20471;-81
2022/03/15 12:14:03;;;;;;;6.63;3.22;;;;;;;;;;4998316;28;20042;-80
2022/03/15 12:16:34;;;;;;;7.75;2.90;;;;;;;;;;4996677;28;20128;-80
2022/03/15 12:19:06;;;;;;;5.70;2.42;;;;;;;;;;4997537;28;20049;-80
2022/03/15 12:21:34;;;;;;;6.82;2.20;;;;;;;;;;4980288;28;20049;-80
2022/03/15 12:24:03;;;;;;;3.63;2.00;;;;;;;;;;4997276;28;20046;-80
2022/03/15 12:26:32;;;;;;;6.65;3.20;;;;;;;;;;4996205;28;20046;-80
2022/03/15 12:29:12;;;;;;;4.97;2.70;;;;;;;;;;4997388;28;20042;-80
2022/03/15 12:31:41;;;;;;;5.63;2.30;;;;;;;;;;4964128;28;20137;-80
2022/03/15 12:34:11;;;;;;;5.28;2.58;;;;;;;;;;5002137;28;20077;-80
2022/03/15 12:36:40;;;;;;;5.55;2.17;;;;;;;;;;5008133;28;20045;-80
2022/03/15 12:39:11;;;;;;;11.65;3.67;;;;;;;;;;5004808;28;20047;-80
2022/03/15 12:41:41;;;;;;;16.20;7.07;;;;;;;;;;5003975;28;20039;-81
2022/03/15 12:44:11;;;;;;;17.52;4.82;;;;;;;;;;4989268;28;20049;-83
2022/03/15 12:46:39;;;;;;;7.55;3.55;;;;;;;;;;4990622;28;20050;-82
2022/03/15 12:49:07;;;;;;;6.70;3.70;;;;;;;;;;5006328;28;20050;-81
2022/03/15 12:51:39;;;;;;;6.63;3.20;;;;;;;;;;5005827;28;20093;-81
2022/03/15 12:54:07;;;;;;;12.77;5.00;;;;;;;;;;4988765;28;20072;-81
2022/03/15 12:56:41;;;;;;;8.93;4.00;;;;;;;;;;5005715;28;20042;-81
2022/03/15 12:59:16;;;;;;;9.75;4.13;;;;;;;;;;5004299;28;20065;-81
2022/03/15 13:01:46;;;;;;;10.37;3.93;;;;;;;;;;5002877;28;20046;-81
2022/03/15 13:04:15;;;;;;;8.02;3.78;;;;;;;;;;5003063;28;20038;-81
2022/03/15 13:06:44;;;;;;;12.35;4.20;;;;;;;;;;5001746;28;20068;-81
2022/03/15 13:09:11;;;;;;;12.35;5.30;;;;;;;;;;4951626;28;20101;-80
2022/03/15 13:11:48;;;;;;;13.82;5.93;;;;;;;;;;4999519;28;20404;-81
2022/03/15 13:14:18;;;;;;;14.35;5.20;;;;;;;;;;4999224;28;20038;-82
2022/03/15 13:16:49;;;;;;;13.75;6.07;;;;;;;;;;4998635;28;20399;-81
2022/03/15 13:19:25;;;;;;;14.80;6.38;;;;;;;;;;4999078;28;20495;-82
2022/03/15 13:21:52;;;;;;;13.18;5.20;;;;;;;;;;4998241;28;20046;-80
2022/03/15 13:24:23;;;;;;;9.68;4.05;;;;;;;;;;4999294;28;20108;-81
2022/03/15 13:26:51;;;;;;;11.30;4.93;;;;;;;;;;5001432;28;20052;-81
2022/03/15 13:29:24;;;;;;;13.18;5.97;;;;;;;;;;5000529;28;20046;-81
2022/03/15 13:31:50;;;;;;;11.10;5.85;;;;;;;;;;4998308;28;20042;-80
2022/03/15 13:34:23;;;;;;;15.25;6.80;;;;;;;;;;4999018;28;20046;-81
2022/03/15 13:36:51;;;;;;;12.52;4.75;;;;;;;;;;4998445;28;20077;-82
2022/03/15 13:39:23;;;;;;;7.82;3.97;;;;;;;;;;4982057;28;20042;-81
2022/03/15 13:41:51;;;;;;;7.43;4.25;;;;;;;;;;4999942;28;20050;-80
2022/03/15 13:44:23;;;;;;;7.13;3.35;;;;;;;;;;4999949;28;20049;-81
2022/03/15 13:46:52;;;;;;;13.40;5.60;;;;;;;;;;5002722;28;20050;-81
2022/03/15 13:49:21;;;;;;;7.25;4.47;;;;;;;;;;5003641;28;20046;-81
2022/03/15 13:51:50;;;;;;;9.55;4.65;;;;;;;;;;4984573;28;20053;-81
2022/03/15 13:54:19;;;;;;;6.82;3.60;;;;;;;;;;4985178;28;20046;-80
2022/03/15 13:56:49;;;;;;;7.65;3.60;;;;;;;;;;5002015;28;20046;-81
2022/03/15 13:59:18;;;;;;;6.32;3.47;;;;;;;;;;5002898;28;20043;-80
2022/03/15 14:01:49;;;;;;;9.25;4.03;;;;;;;;;;5001352;28;20144;-81
2022/03/15 14:04:18;;;;;;;6.13;3.63;;;;;;;;;;5000555;28;20046;-82
2022/03/15 14:06:46;;;;;;;8.48;4.22;;;;;;;;;;4985777;28;20105;-82
2022/03/15 14:09:24;;;;;;;6.65;3.30;;;;;;;;;;5000490;28;20081;-82
2022/03/15 14:12:08;;;;;;;7.03;3.33;;;;;;;;;;5001446;28;20104;-82
2022/03/15 14:14:39;;;;;;;6.93;3.40;;;;;;;;;;5002286;28;20475;-82
2022/03/15 14:17:09;;;;;;;6.68;3.53;;;;;;;;;;5004060;28;20093;-80
2022/03/15 14:19:48;;;;;;;9.35;4.38;;;;;;;;;;5002935;28;20077;-80
2022/03/15 14:22:18;;;;;;;8.02;3.38;;;;;;;;;;5002137;28;20043;-80
2022/03/15 14:24:46;;;;;;;6.88;4.38;;;;;;;;;;5000017;28;20042;-80
2022/03/15 14:27:16;;;;;;;7.03;4.18;;;;;;;;;;4999661;28;20047;-79
2022/03/15 14:29:54;;;;;;;7.53;4.20;;;;;;;;;;5000524;28;20042;-82
2022/03/15 14:32:24;;;;;;;7.35;3.60;;;;;;;;;;5001809;28;20084;-81
2022/03/15 14:34:55;;;;;;;6.65;3.70;;;;;;;;;;5001676;28;20070;-82
2022/03/15 14:37:25;;;;;;;6.97;3.80;;;;;;;;;;5003134;28;20077;-82
2022/03/15 14:40:03;;;;;;;6.47;3.45;;;;;;;;;;5003345;28;20049;-81
2022/03/15 14:42:35;;;;;;;7.10;4.20;;;;;;;;;;5001493;28;20046;-82
2022/03/15 14:45:05;;;;;;;6.60;3.90;;;;;;;;;;5002462;28;20050;-80
2022/03/15 14:47:41;;;;;;;7.10;4.38;;;;;;;;;;5001249;28;20502;-83
2022/03/15 14:50:09;;;;;;;7.55;3.85;;;;;;;;;;5002150;28;20084;-79